sensor_id;sensor_type;location;lat;lon;timestamp;P1;durP1;ratioP1;P2;durP2;ratioP2
33952;SDS011;20231;42.710;23.280;2022-12-20T00:02:03;24.90;;;10.95;;
33952;SDS011;20231;42.710;23.280;2022-12-20T00:04:29;20.33;;;10.73;;
33952;SDS011;20231;42.710;23.280;2022-12-20T00:06:54;21.08;;;10.25;;
33952;SDS011;20231;42.710;23.280;2022-12-20T00:09:19;21.08;;;10.55;;
33952;SDS011;20231;42.710;23.280;2022-12-20T00:11:45;18.98;;;10.77;;
33952;SDS011;20231;42.710;23.280;2022-12-20T00:14:11;18.77;;;9.88;;
33952;SDS011;20231;42.710;23.280;2022-12-20T00:16:37;20.70;;;10.80;;
33952;SDS011;20231;42.710;23.280;2022-12-20T00:19:05;18.70;;;10.35;;
33952;SDS011;20231;42.710;23.280;2022-12-20T00:21:32;21.77;;;10.70;;
33952;SDS011;20231;42.710;23.280;2022-12-20T00:23:59;19.33;;;10.65;;
33952;SDS011;20231;42.710;23.280;2022-12-20T00:26:25;16.98;;;9.73;;
33952;SDS011;20231;42.710;23.280;2022-12-20T00:28:53;21.23;;;10.77;;
33952;SDS011;20231;42.710;23.280;2022-12-20T00:31:20;21.00;;;10.25;;
33952;SDS011;20231;42.710;23.280;2022-12-20T00:33:47;18.58;;;9.50;;
33952;SDS011;20231;42.710;23.280;2022-12-20T00:36:16;17.67;;;9.43;;
33952;SDS011;20231;42.710;23.280;2022-12-20T00:38:44;16.60;;;9.30;;
33952;SDS011;20231;42.710;23.280;2022-12-20T00:41:11;20.92;;;9.35;;
33952;SDS011;20231;42.710;23.280;2022-12-20T00:43:39;18.30;;;9.77;;
33952;SDS011;20231;42.710;23.280;2022-12-20T00:46:05;18.27;;;9.88;;
33952;SDS011;20231;42.710;23.280;2022-12-20T00:48:33;17.73;;;9.23;;
33952;SDS011;20231;42.710;23.280;2022-12-20T00:50:59;17.27;;;8.93;;
33952;SDS011;20231;42.710;23.280;2022-12-20T00:53:30;17.67;;;9.07;;
33952;SDS011;20231;42.710;23.280;2022-12-20T00:55:57;22.95;;;9.77;;
33952;SDS011;20231;42.710;23.280;2022-12-20T00:58:22;19.05;;;9.48;;
33952;SDS011;20231;42.710;23.280;2022-12-20T01:00:48;18.63;;;8.93;;
33952;SDS011;20231;42.710;23.280;2022-12-20T01:03:14;15.73;;;8.70;;
33952;SDS011;20231;42.710;23.280;2022-12-20T01:05:39;16.77;;;8.27;;
33952;SDS011;20231;42.710;23.280;2022-12-20T01:08:05;15.05;;;8.38;;
33952;SDS011;20231;42.710;23.280;2022-12-20T01:10:30;17.00;;;8.40;;
33952;SDS011;20231;42.710;23.280;2022-12-20T01:12:56;14.68;;;8.73;;
33952;SDS011;20231;42.710;23.280;2022-12-20T01:15:22;17.25;;;9.05;;
33952;SDS011;20231;42.710;23.280;2022-12-20T01:17:47;17.95;;;8.60;;
33952;SDS011;20231;42.710;23.280;2022-12-20T01:20:13;16.88;;;8.55;;
33952;SDS011;20231;42.710;23.280;2022-12-20T01:22:38;15.00;;;8.23;;
33952;SDS011;20231;42.710;23.280;2022-12-20T01:25:04;17.48;;;8.60;;
33952;SDS011;20231;42.710;23.280;2022-12-20T01:27:30;15.30;;;7.93;;
33952;SDS011;20231;42.710;23.280;2022-12-20T01:29:55;17.05;;;7.60;;
33952;SDS011;20231;42.710;23.280;2022-12-20T01:32:21;14.38;;;8.73;;
33952;SDS011;20231;42.710;23.280;2022-12-20T01:34:46;13.90;;;7.72;;
33952;SDS011;20231;42.710;23.280;2022-12-20T01:37:12;14.80;;;8.30;;
33952;SDS011;20231;42.710;23.280;2022-12-20T01:39:37;14.63;;;8.07;;
33952;SDS011;20231;42.710;23.280;2022-12-20T01:42:03;16.88;;;8.38;;
33952;SDS011;20231;42.710;23.280;2022-12-20T01:46:54;14.70;;;7.70;;
33952;SDS011;20231;42.710;23.280;2022-12-20T01:49:24;17.95;;;8.50;;
33952;SDS011;20231;42.710;23.280;2022-12-20T01:51:59;17.30;;;8.25;;
33952;SDS011;20231;42.710;23.280;2022-12-20T01:54:39;14.77;;;8.20;;
33952;SDS011;20231;42.710;23.280;2022-12-20T01:57:09;17.35;;;8.13;;
33952;SDS011;20231;42.710;23.280;2022-12-20T01:59:41;16.52;;;8.43;;
33952;SDS011;20231;42.710;23.280;2022-12-20T02:02:08;15.50;;;8.65;;
33952;SDS011;20231;42.710;23.280;2022-12-20T02:04:36;15.75;;;7.55;;
33952;SDS011;20231;42.710;23.280;2022-12-20T02:07:02;16.77;;;7.28;;
33952;SDS011;20231;42.710;23.280;2022-12-20T02:09:31;15.75;;;7.20;;
33952;SDS011;20231;42.710;23.280;2022-12-20T02:29:05;13.73;;;6.82;;
33952;SDS011;20231;42.710;23.280;2022-12-20T02:31:49;13.98;;;7.20;;
33952;SDS011;20231;42.710;23.280;2022-12-20T02:34:35;18.20;;;7.60;;
33952;SDS011;20231;42.710;23.280;2022-12-20T02:37:02;15.50;;;8.40;;
33952;SDS011;20231;42.710;23.280;2022-12-20T02:39:29;14.13;;;7.80;;
33952;SDS011;20231;42.710;23.280;2022-12-20T02:41:57;16.90;;;8.07;;
33952;SDS011;20231;42.710;23.280;2022-12-20T02:44:28;14.65;;;7.88;;
33952;SDS011;20231;42.710;23.280;2022-12-20T02:47:17;17.92;;;8.75;;
33952;SDS011;20231;42.710;23.280;2022-12-20T02:49:48;16.65;;;8.45;;
33952;SDS011;20231;42.710;23.280;2022-12-20T02:52:16;17.73;;;7.80;;
33952;SDS011;20231;42.710;23.280;2022-12-20T02:54:42;14.75;;;7.97;;
33952;SDS011;20231;42.710;23.280;2022-12-20T02:57:19;16.23;;;8.88;;
33952;SDS011;20231;42.710;23.280;2022-12-20T02:59:55;15.93;;;8.02;;
33952;SDS011;20231;42.710;23.280;2022-12-20T03:02:34;12.82;;;7.30;;
33952;SDS011;20231;42.710;23.280;2022-12-20T03:05:20;15.07;;;8.57;;
33952;SDS011;20231;42.710;23.280;2022-12-20T03:07:48;19.27;;;9.20;;
33952;SDS011;20231;42.710;23.280;2022-12-20T03:10:14;15.65;;;8.98;;
33952;SDS011;20231;42.710;23.280;2022-12-20T03:12:40;14.68;;;7.75;;
33952;SDS011;20231;42.710;23.280;2022-12-20T03:15:06;13.95;;;7.72;;
33952;SDS011;20231;42.710;23.280;2022-12-20T03:17:31;15.93;;;8.35;;
33952;SDS011;20231;42.710;23.280;2022-12-20T03:19:57;19.52;;;8.57;;
33952;SDS011;20231;42.710;23.280;2022-12-20T03:22:22;15.27;;;7.82;;
33952;SDS011;20231;42.710;23.280;2022-12-20T03:24:48;14.25;;;8.25;;
33952;SDS011;20231;42.710;23.280;2022-12-20T03:27:14;16.80;;;8.93;;
33952;SDS011;20231;42.710;23.280;2022-12-20T03:29:40;18.35;;;8.40;;
33952;SDS011;20231;42.710;23.280;2022-12-20T03:32:06;14.57;;;7.50;;
33952;SDS011;20231;42.710;23.280;2022-12-20T03:34:31;17.15;;;8.38;;
33952;SDS011;20231;42.710;23.280;2022-12-20T03:36:56;19.50;;;8.55;;
33952;SDS011;20231;42.710;23.280;2022-12-20T03:39:22;16.60;;;8.45;;
33952;SDS011;20231;42.710;23.280;2022-12-20T03:41:47;15.88;;;8.77;;
33952;SDS011;20231;42.710;23.280;2022-12-20T03:44:12;15.45;;;7.93;;
33952;SDS011;20231;42.710;23.280;2022-12-20T03:46:38;15.48;;;8.63;;
33952;SDS011;20231;42.710;23.280;2022-12-20T03:49:03;16.63;;;8.63;;
33952;SDS011;20231;42.710;23.280;2022-12-20T03:51:30;17.02;;;9.63;;
33952;SDS011;20231;42.710;23.280;2022-12-20T03:53:55;15.43;;;8.57;;
33952;SDS011;20231;42.710;23.280;2022-12-20T03:56:22;14.95;;;8.75;;
33952;SDS011;20231;42.710;23.280;2022-12-20T03:58:47;18.55;;;8.90;;
33952;SDS011;20231;42.710;23.280;2022-12-20T04:01:20;16.70;;;8.52;;
33952;SDS011;20231;42.710;23.280;2022-12-20T04:03:47;18.40;;;9.38;;
33952;SDS011;20231;42.710;23.280;2022-12-20T04:06:13;16.60;;;8.98;;
33952;SDS011;20231;42.710;23.280;2022-12-20T04:08:38;16.35;;;9.18;;
33952;SDS011;20231;42.710;23.280;2022-12-20T04:11:05;22.27;;;9.77;;
33952;SDS011;20231;42.710;23.280;2022-12-20T04:13:40;16.90;;;8.82;;
33952;SDS011;20231;42.710;23.280;2022-12-20T04:16:06;19.83;;;10.68;;
33952;SDS011;20231;42.710;23.280;2022-12-20T04:18:31;14.32;;;8.25;;
33952;SDS011;20231;42.710;23.280;2022-12-20T04:20:58;16.50;;;9.30;;
33952;SDS011;20231;42.710;23.280;2022-12-20T04:23:24;19.42;;;9.35;;
33952;SDS011;20231;42.710;23.280;2022-12-20T04:25:49;17.83;;;10.13;;
33952;SDS011;20231;42.710;23.280;2022-12-20T04:28:15;18.35;;;9.25;;
33952;SDS011;20231;42.710;23.280;2022-12-20T04:30:40;17.85;;;9.70;;
33952;SDS011;20231;42.710;23.280;2022-12-20T04:33:05;16.42;;;9.20;;
33952;SDS011;20231;42.710;23.280;2022-12-20T04:35:31;19.15;;;9.73;;
33952;SDS011;20231;42.710;23.280;2022-12-20T04:37:56;16.52;;;8.68;;
33952;SDS011;20231;42.710;23.280;2022-12-20T04:40:22;17.67;;;9.85;;
33952;SDS011;20231;42.710;23.280;2022-12-20T04:42:47;19.50;;;9.07;;
33952;SDS011;20231;42.710;23.280;2022-12-20T04:45:13;14.60;;;9.45;;
33952;SDS011;20231;42.710;23.280;2022-12-20T04:47:38;19.33;;;9.65;;
33952;SDS011;20231;42.710;23.280;2022-12-20T04:50:05;18.65;;;9.63;;
33952;SDS011;20231;42.710;23.280;2022-12-20T04:52:31;15.15;;;8.65;;
33952;SDS011;20231;42.710;23.280;2022-12-20T04:55:15;20.65;;;10.10;;
33952;SDS011;20231;42.710;23.280;2022-12-20T04:57:40;17.27;;;9.48;;
33952;SDS011;20231;42.710;23.280;2022-12-20T05:00:06;21.42;;;10.38;;
33952;SDS011;20231;42.710;23.280;2022-12-20T05:02:32;16.80;;;9.75;;
33952;SDS011;20231;42.710;23.280;2022-12-20T05:05:06;18.20;;;9.35;;
33952;SDS011;20231;42.710;23.280;2022-12-20T05:07:33;19.17;;;9.60;;
33952;SDS011;20231;42.710;23.280;2022-12-20T05:09:58;17.48;;;10.00;;
33952;SDS011;20231;42.710;23.280;2022-12-20T05:12:24;20.90;;;9.90;;
33952;SDS011;20231;42.710;23.280;2022-12-20T05:14:49;22.45;;;9.90;;
33952;SDS011;20231;42.710;23.280;2022-12-20T05:17:15;19.60;;;9.95;;
33952;SDS011;20231;42.710;23.280;2022-12-20T05:19:40;19.70;;;10.40;;
33952;SDS011;20231;42.710;23.280;2022-12-20T05:22:06;21.75;;;11.15;;
33952;SDS011;20231;42.710;23.280;2022-12-20T05:24:50;20.45;;;9.98;;
33952;SDS011;20231;42.710;23.280;2022-12-20T05:27:34;18.52;;;9.77;;
33952;SDS011;20231;42.710;23.280;2022-12-20T05:29:59;22.45;;;10.15;;
33952;SDS011;20231;42.710;23.280;2022-12-20T05:32:24;20.63;;;10.40;;
33952;SDS011;20231;42.710;23.280;2022-12-20T05:34:51;27.08;;;10.10;;
33952;SDS011;20231;42.710;23.280;2022-12-20T05:37:16;19.92;;;10.60;;
33952;SDS011;20231;42.710;23.280;2022-12-20T05:39:42;17.30;;;9.30;;
33952;SDS011;20231;42.710;23.280;2022-12-20T05:42:07;20.63;;;10.23;;
33952;SDS011;20231;42.710;23.280;2022-12-20T05:44:33;18.85;;;10.27;;
33952;SDS011;20231;42.710;23.280;2022-12-20T05:46:58;23.33;;;11.32;;
33952;SDS011;20231;42.710;23.280;2022-12-20T05:49:24;19.90;;;10.07;;
33952;SDS011;20231;42.710;23.280;2022-12-20T05:51:49;21.52;;;10.63;;
33952;SDS011;20231;42.710;23.280;2022-12-20T05:54:15;22.33;;;10.68;;
33952;SDS011;20231;42.710;23.280;2022-12-20T05:56:40;21.70;;;10.48;;
33952;SDS011;20231;42.710;23.280;2022-12-20T05:59:05;22.25;;;11.65;;
33952;SDS011;20231;42.710;23.280;2022-12-20T06:01:31;20.27;;;10.75;;
33952;SDS011;20231;42.710;23.280;2022-12-20T06:03:57;19.60;;;9.63;;
33952;SDS011;20231;42.710;23.280;2022-12-20T06:06:22;21.33;;;9.50;;
33952;SDS011;20231;42.710;23.280;2022-12-20T06:08:48;27.48;;;11.63;;
33952;SDS011;20231;42.710;23.280;2022-12-20T06:11:13;23.25;;;10.48;;
33952;SDS011;20231;42.710;23.280;2022-12-20T06:13:39;28.58;;;10.90;;
33952;SDS011;20231;42.710;23.280;2022-12-20T06:16:04;26.98;;;11.27;;
33952;SDS011;20231;42.710;23.280;2022-12-20T06:18:31;23.10;;;10.88;;
33952;SDS011;20231;42.710;23.280;2022-12-20T06:20:56;25.98;;;10.40;;
33952;SDS011;20231;42.710;23.280;2022-12-20T06:23:21;20.70;;;11.73;;
33952;SDS011;20231;42.710;23.280;2022-12-20T06:25:47;19.80;;;11.43;;
33952;SDS011;20231;42.710;23.280;2022-12-20T06:28:12;19.35;;;10.80;;
33952;SDS011;20231;42.710;23.280;2022-12-20T06:30:40;19.60;;;10.82;;
33952;SDS011;20231;42.710;23.280;2022-12-20T06:33:05;23.40;;;10.50;;
33952;SDS011;20231;42.710;23.280;2022-12-20T06:35:30;21.23;;;11.10;;
33952;SDS011;20231;42.710;23.280;2022-12-20T06:37:56;22.13;;;11.38;;
33952;SDS011;20231;42.710;23.280;2022-12-20T06:40:21;22.85;;;11.75;;
33952;SDS011;20231;42.710;23.280;2022-12-20T06:42:47;21.35;;;10.88;;
33952;SDS011;20231;42.710;23.280;2022-12-20T06:45:14;22.98;;;10.25;;
33952;SDS011;20231;42.710;23.280;2022-12-20T06:47:40;21.85;;;11.20;;
33952;SDS011;20231;42.710;23.280;2022-12-20T06:50:06;21.10;;;11.57;;
33952;SDS011;20231;42.710;23.280;2022-12-20T06:52:31;22.88;;;10.70;;
33952;SDS011;20231;42.710;23.280;2022-12-20T06:54:57;22.50;;;11.32;;
33952;SDS011;20231;42.710;23.280;2022-12-20T06:57:22;25.65;;;10.20;;
33952;SDS011;20231;42.710;23.280;2022-12-20T06:59:48;18.40;;;9.25;;
33952;SDS011;20231;42.710;23.280;2022-12-20T07:02:13;21.30;;;10.68;;
33952;SDS011;20231;42.710;23.280;2022-12-20T07:04:39;21.33;;;10.80;;
33952;SDS011;20231;42.710;23.280;2022-12-20T07:07:05;26.08;;;11.38;;
33952;SDS011;20231;42.710;23.280;2022-12-20T07:09:31;21.52;;;10.93;;
33952;SDS011;20231;42.710;23.280;2022-12-20T07:11:57;20.38;;;9.70;;
33952;SDS011;20231;42.710;23.280;2022-12-20T07:14:22;27.58;;;10.10;;
33952;SDS011;20231;42.710;23.280;2022-12-20T07:16:48;19.35;;;10.18;;
33952;SDS011;20231;42.710;23.280;2022-12-20T07:19:14;20.25;;;10.40;;
33952;SDS011;20231;42.710;23.280;2022-12-20T07:21:40;22.75;;;10.68;;
33952;SDS011;20231;42.710;23.280;2022-12-20T07:24:06;19.52;;;10.85;;
33952;SDS011;20231;42.710;23.280;2022-12-20T07:26:32;17.70;;;10.38;;
33952;SDS011;20231;42.710;23.280;2022-12-20T07:28:58;24.73;;;10.60;;
33952;SDS011;20231;42.710;23.280;2022-12-20T07:31:23;20.33;;;9.23;;
33952;SDS011;20231;42.710;23.280;2022-12-20T07:33:48;21.15;;;10.70;;
33952;SDS011;20231;42.710;23.280;2022-12-20T07:36:14;23.77;;;10.10;;
33952;SDS011;20231;42.710;23.280;2022-12-20T07:38:42;18.30;;;9.15;;
33952;SDS011;20231;42.710;23.280;2022-12-20T07:41:10;23.20;;;10.60;;
33952;SDS011;20231;42.710;23.280;2022-12-20T07:43:38;27.17;;;11.75;;
33952;SDS011;20231;42.710;23.280;2022-12-20T07:46:04;23.83;;;10.68;;
33952;SDS011;20231;42.710;23.280;2022-12-20T07:48:31;21.73;;;11.48;;
33952;SDS011;20231;42.710;23.280;2022-12-20T07:51:01;21.70;;;10.50;;
33952;SDS011;20231;42.710;23.280;2022-12-20T07:53:30;27.63;;;11.00;;
33952;SDS011;20231;42.710;23.280;2022-12-20T07:56:01;24.75;;;10.93;;
33952;SDS011;20231;42.710;23.280;2022-12-20T07:58:28;22.95;;;11.07;;
33952;SDS011;20231;42.710;23.280;2022-12-20T08:00:55;27.63;;;11.05;;
33952;SDS011;20231;42.710;23.280;2022-12-20T08:03:32;27.65;;;11.60;;
33952;SDS011;20231;42.710;23.280;2022-12-20T08:06:04;24.25;;;11.38;;
33952;SDS011;20231;42.710;23.280;2022-12-20T08:08:31;20.65;;;10.85;;
33952;SDS011;20231;42.710;23.280;2022-12-20T08:10:59;23.95;;;11.63;;
33952;SDS011;20231;42.710;23.280;2022-12-20T08:13:26;21.33;;;10.98;;
33952;SDS011;20231;42.710;23.280;2022-12-20T08:15:51;27.27;;;13.02;;
33952;SDS011;20231;42.710;23.280;2022-12-20T08:18:17;27.58;;;12.55;;
33952;SDS011;20231;42.710;23.280;2022-12-20T08:20:42;21.25;;;10.93;;
33952;SDS011;20231;42.710;23.280;2022-12-20T08:23:08;24.52;;;11.25;;
33952;SDS011;20231;42.710;23.280;2022-12-20T08:25:33;21.90;;;11.73;;
33952;SDS011;20231;42.710;23.280;2022-12-20T08:28:00;33.05;;;8.45;;
33952;SDS011;20231;42.710;23.280;2022-12-20T08:30:27;31.92;;;12.15;;
33952;SDS011;20231;42.710;23.280;2022-12-20T08:32:54;29.15;;;12.27;;
33952;SDS011;20231;42.710;23.280;2022-12-20T08:35:19;27.05;;;10.93;;
33952;SDS011;20231;42.710;23.280;2022-12-20T08:37:45;19.90;;;11.20;;
33952;SDS011;20231;42.710;23.280;2022-12-20T08:40:11;24.55;;;10.18;;
33952;SDS011;20231;42.710;23.280;2022-12-20T08:42:37;20.20;;;10.90;;
33952;SDS011;20231;42.710;23.280;2022-12-20T08:45:03;17.30;;;9.77;;
33952;SDS011;20231;42.710;23.280;2022-12-20T08:49:57;17.98;;;9.82;;
33952;SDS011;20231;42.710;23.280;2022-12-20T08:52:22;19.25;;;9.50;;
33952;SDS011;20231;42.710;23.280;2022-12-20T08:54:48;22.73;;;10.35;;
33952;SDS011;20231;42.710;23.280;2022-12-20T08:57:13;20.23;;;11.23;;
33952;SDS011;20231;42.710;23.280;2022-12-20T08:59:39;21.83;;;10.00;;
33952;SDS011;20231;42.710;23.280;2022-12-20T09:02:04;22.20;;;11.25;;
33952;SDS011;20231;42.710;23.280;2022-12-20T09:04:30;16.75;;;10.13;;
33952;SDS011;20231;42.710;23.280;2022-12-20T09:06:56;25.50;;;11.65;;
33952;SDS011;20231;42.710;23.280;2022-12-20T09:11:51;25.63;;;13.05;;
33952;SDS011;20231;42.710;23.280;2022-12-20T09:14:17;30.73;;;15.13;;
33952;SDS011;20231;42.710;23.280;2022-12-20T09:16:43;21.10;;;9.93;;
33952;SDS011;20231;42.710;23.280;2022-12-20T09:19:09;20.60;;;11.07;;
33952;SDS011;20231;42.710;23.280;2022-12-20T09:21:37;23.70;;;11.23;;
33952;SDS011;20231;42.710;23.280;2022-12-20T09:24:03;20.08;;;10.30;;
33952;SDS011;20231;42.710;23.280;2022-12-20T09:26:30;19.35;;;10.35;;
33952;SDS011;20231;42.710;23.280;2022-12-20T09:28:56;21.42;;;10.20;;
33952;SDS011;20231;42.710;23.280;2022-12-20T09:31:23;17.33;;;9.27;;
33952;SDS011;20231;42.710;23.280;2022-12-20T09:33:53;21.95;;;11.07;;
33952;SDS011;20231;42.710;23.280;2022-12-20T09:36:21;27.63;;;11.18;;
33952;SDS011;20231;42.710;23.280;2022-12-20T09:38:47;21.35;;;9.63;;
33952;SDS011;20231;42.710;23.280;2022-12-20T09:41:58;20.85;;;9.73;;
33952;SDS011;20231;42.710;23.280;2022-12-20T09:44:04;24.83;;;12.50;;
33952;SDS011;20231;42.710;23.280;2022-12-20T09:47:07;36.30;;;15.27;;
33952;SDS011;20231;42.710;23.280;2022-12-20T09:49:40;26.58;;;13.15;;
33952;SDS011;20231;42.710;23.280;2022-12-20T09:52:15;22.20;;;11.77;;
33952;SDS011;20231;42.710;23.280;2022-12-20T10:00:26;20.15;;;9.65;;
33952;SDS011;20231;42.710;23.280;2022-12-20T10:02:52;21.75;;;10.70;;
33952;SDS011;20231;42.710;23.280;2022-12-20T10:05:24;23.90;;;11.05;;
33952;SDS011;20231;42.710;23.280;2022-12-20T10:16:51;29.80;;;11.93;;
33952;SDS011;20231;42.710;23.280;2022-12-20T10:24:44;20.85;;;10.48;;
33952;SDS011;20231;42.710;23.280;2022-12-20T10:27:23;21.20;;;10.73;;
33952;SDS011;20231;42.710;23.280;2022-12-20T10:29:48;22.45;;;11.65;;
33952;SDS011;20231;42.710;23.280;2022-12-20T10:32:17;19.15;;;10.07;;
33952;SDS011;20231;42.710;23.280;2022-12-20T10:37:34;22.70;;;10.77;;
33952;SDS011;20231;42.710;23.280;2022-12-20T10:40:00;20.33;;;10.85;;
33952;SDS011;20231;42.710;23.280;2022-12-20T10:42:36;20.92;;;10.05;;
33952;SDS011;20231;42.710;23.280;2022-12-20T10:45:24;21.27;;;9.10;;
33952;SDS011;20231;42.710;23.280;2022-12-20T10:51:21;22.88;;;10.32;;
33952;SDS011;20231;42.710;23.280;2022-12-20T11:01:26;19.58;;;9.88;;
33952;SDS011;20231;42.710;23.280;2022-12-20T11:03:56;18.35;;;9.77;;
33952;SDS011;20231;42.710;23.280;2022-12-20T11:11:58;23.38;;;9.90;;
33952;SDS011;20231;42.710;23.280;2022-12-20T11:14:24;20.98;;;10.57;;
33952;SDS011;20231;42.710;23.280;2022-12-20T11:16:50;16.20;;;9.68;;
33952;SDS011;20231;42.710;23.280;2022-12-20T11:24:58;17.27;;;8.77;;
33952;SDS011;20231;42.710;23.280;2022-12-20T11:35:51;18.90;;;8.75;;
33952;SDS011;20231;42.710;23.280;2022-12-20T11:38:45;19.25;;;9.05;;
33952;SDS011;20231;42.710;23.280;2022-12-20T11:49:49;18.85;;;9.30;;
33952;SDS011;20231;42.710;23.280;2022-12-20T11:53:01;23.15;;;8.75;;
33952;SDS011;20231;42.710;23.280;2022-12-20T11:55:26;20.75;;;9.88;;
33952;SDS011;20231;42.710;23.280;2022-12-20T12:00:58;17.80;;;8.90;;
33952;SDS011;20231;42.710;23.280;2022-12-20T12:03:35;16.65;;;8.75;;
33952;SDS011;20231;42.710;23.280;2022-12-20T12:06:15;20.67;;;9.93;;
33952;SDS011;20231;42.710;23.280;2022-12-20T12:08:47;18.23;;;8.38;;
33952;SDS011;20231;42.710;23.280;2022-12-20T12:11:25;16.23;;;7.90;;
33952;SDS011;20231;42.710;23.280;2022-12-20T12:13:54;16.25;;;8.00;;
33952;SDS011;20231;42.710;23.280;2022-12-20T12:18:58;15.13;;;8.40;;
33952;SDS011;20231;42.710;23.280;2022-12-20T12:26:37;12.65;;;7.07;;
33952;SDS011;20231;42.710;23.280;2022-12-20T12:45:41;16.42;;;7.90;;
33952;SDS011;20231;42.710;23.280;2022-12-20T12:48:19;14.77;;;8.02;;
33952;SDS011;20231;42.710;23.280;2022-12-20T12:50:48;28.30;;;8.90;;
33952;SDS011;20231;42.710;23.280;2022-12-20T12:53:17;17.83;;;8.20;;
33952;SDS011;20231;42.710;23.280;2022-12-20T13:11:57;13.23;;;7.30;;
33952;SDS011;20231;42.710;23.280;2022-12-20T13:16:54;24.80;;;8.63;;
33952;SDS011;20231;42.710;23.280;2022-12-20T13:19:50;19.23;;;7.15;;
33952;SDS011;20231;42.710;23.280;2022-12-20T13:24:55;15.85;;;8.30;;
33952;SDS011;20231;42.710;23.280;2022-12-20T13:41:08;15.55;;;6.97;;
33952;SDS011;20231;42.710;23.280;2022-12-20T13:43:09;11.95;;;7.20;;
33952;SDS011;20231;42.710;23.280;2022-12-20T13:45:45;13.13;;;7.20;;
33952;SDS011;20231;42.710;23.280;2022-12-20T13:48:14;13.60;;;7.15;;
33952;SDS011;20231;42.710;23.280;2022-12-20T13:50:51;11.13;;;6.07;;
33952;SDS011;20231;42.710;23.280;2022-12-20T13:53:20;11.75;;;6.85;;
33952;SDS011;20231;42.710;23.280;2022-12-20T13:55:47;14.48;;;6.10;;
33952;SDS011;20231;42.710;23.280;2022-12-20T13:58:21;14.57;;;6.45;;
33952;SDS011;20231;42.710;23.280;2022-12-20T14:05:44;14.98;;;7.03;;
33952;SDS011;20231;42.710;23.280;2022-12-20T14:08:14;13.43;;;7.40;;
33952;SDS011;20231;42.710;23.280;2022-12-20T14:10:44;14.23;;;7.55;;
33952;SDS011;20231;42.710;23.280;2022-12-20T14:13:18;12.10;;;6.88;;
33952;SDS011;20231;42.710;23.280;2022-12-20T14:15:43;16.30;;;7.13;;
33952;SDS011;20231;42.710;23.280;2022-12-20T14:18:17;14.25;;;6.00;;
33952;SDS011;20231;42.710;23.280;2022-12-20T14:20:52;18.67;;;7.13;;
33952;SDS011;20231;42.710;23.280;2022-12-20T14:23:21;12.93;;;6.57;;
33952;SDS011;20231;42.710;23.280;2022-12-20T14:25:56;17.02;;;7.90;;
33952;SDS011;20231;42.710;23.280;2022-12-20T14:36:28;17.85;;;8.75;;
33952;SDS011;20231;42.710;23.280;2022-12-20T14:38:55;23.35;;;10.18;;
33952;SDS011;20231;42.710;23.280;2022-12-20T14:41:37;26.55;;;10.60;;
33952;SDS011;20231;42.710;23.280;2022-12-20T14:44:17;18.42;;;9.63;;
33952;SDS011;20231;42.710;23.280;2022-12-20T14:46:49;22.90;;;10.25;;
33952;SDS011;20231;42.710;23.280;2022-12-20T14:49:27;26.33;;;10.27;;
33952;SDS011;20231;42.710;23.280;2022-12-20T14:52:06;19.33;;;10.27;;
33952;SDS011;20231;42.710;23.280;2022-12-20T14:54:43;21.45;;;10.45;;
33952;SDS011;20231;42.710;23.280;2022-12-20T14:57:19;25.10;;;10.32;;
33952;SDS011;20231;42.710;23.280;2022-12-20T15:00:53;23.73;;;9.48;;
33952;SDS011;20231;42.710;23.280;2022-12-20T15:02:49;21.38;;;10.23;;
33952;SDS011;20231;42.710;23.280;2022-12-20T15:10:55;31.40;;;11.63;;
33952;SDS011;20231;42.710;23.280;2022-12-20T15:13:26;23.00;;;11.45;;
33952;SDS011;20231;42.710;23.280;2022-12-20T15:16:02;24.13;;;10.38;;
33952;SDS011;20231;42.710;23.280;2022-12-20T15:18:37;32.38;;;11.25;;
33952;SDS011;20231;42.710;23.280;2022-12-20T15:21:48;24.92;;;12.88;;
33952;SDS011;20231;42.710;23.280;2022-12-20T15:23:57;26.83;;;11.75;;
33952;SDS011;20231;42.710;23.280;2022-12-20T15:26:26;32.38;;;13.38;;
33952;SDS011;20231;42.710;23.280;2022-12-20T15:28:52;35.85;;;14.23;;
33952;SDS011;20231;42.710;23.280;2022-12-20T15:31:19;45.97;;;14.15;;
33952;SDS011;20231;42.710;23.280;2022-12-20T15:33:46;24.77;;;13.57;;
33952;SDS011;20231;42.710;23.280;2022-12-20T15:36:16;27.80;;;11.88;;
33952;SDS011;20231;42.710;23.280;2022-12-20T15:38:46;27.42;;;12.85;;
33952;SDS011;20231;42.710;23.280;2022-12-20T15:41:13;28.75;;;12.07;;
33952;SDS011;20231;42.710;23.280;2022-12-20T15:43:44;31.33;;;14.90;;
33952;SDS011;20231;42.710;23.280;2022-12-20T15:46:09;29.02;;;12.68;;
33952;SDS011;20231;42.710;23.280;2022-12-20T15:48:35;26.13;;;12.55;;
33952;SDS011;20231;42.710;23.280;2022-12-20T15:51:00;24.13;;;12.18;;
33952;SDS011;20231;42.710;23.280;2022-12-20T15:53:29;27.25;;;13.02;;
33952;SDS011;20231;42.710;23.280;2022-12-20T15:55:56;18.15;;;10.38;;
33952;SDS011;20231;42.710;23.280;2022-12-20T15:58:22;24.77;;;11.20;;
33952;SDS011;20231;42.710;23.280;2022-12-20T16:00:49;24.25;;;10.80;;
33952;SDS011;20231;42.710;23.280;2022-12-20T16:03:20;27.92;;;11.48;;
33952;SDS011;20231;42.710;23.280;2022-12-20T16:05:47;30.40;;;13.32;;
33952;SDS011;20231;42.710;23.280;2022-12-20T16:08:15;27.92;;;13.25;;
33952;SDS011;20231;42.710;23.280;2022-12-20T16:10:42;37.38;;;13.45;;
33952;SDS011;20231;42.710;23.280;2022-12-20T16:13:12;29.35;;;14.52;;
33952;SDS011;20231;42.710;23.280;2022-12-20T16:15:39;41.47;;;15.85;;
33952;SDS011;20231;42.710;23.280;2022-12-20T16:18:05;29.50;;;16.38;;
33952;SDS011;20231;42.710;23.280;2022-12-20T16:20:30;35.92;;;16.38;;
33952;SDS011;20231;42.710;23.280;2022-12-20T16:22:56;32.70;;;16.10;;
33952;SDS011;20231;42.710;23.280;2022-12-20T16:25:25;47.20;;;16.05;;
33952;SDS011;20231;42.710;23.280;2022-12-20T16:27:56;31.13;;;15.75;;
33952;SDS011;20231;42.710;23.280;2022-12-20T16:30:22;41.78;;;17.52;;
33952;SDS011;20231;42.710;23.280;2022-12-20T16:32:48;29.80;;;15.27;;
33952;SDS011;20231;42.710;23.280;2022-12-20T16:35:32;43.28;;;15.15;;
33952;SDS011;20231;42.710;23.280;2022-12-20T16:38:02;29.73;;;15.07;;
33952;SDS011;20231;42.710;23.280;2022-12-20T16:40:29;26.05;;;13.07;;
33952;SDS011;20231;42.710;23.280;2022-12-20T16:42:57;28.77;;;11.35;;
33952;SDS011;20231;42.710;23.280;2022-12-20T16:45:27;26.65;;;11.88;;
33952;SDS011;20231;42.710;23.280;2022-12-20T16:48:04;18.73;;;10.80;;
33952;SDS011;20231;42.710;23.280;2022-12-20T16:50:30;22.02;;;10.95;;
33952;SDS011;20231;42.710;23.280;2022-12-20T16:52:55;31.23;;;15.07;;
33952;SDS011;20231;42.710;23.280;2022-12-20T16:55:25;23.55;;;10.55;;
33952;SDS011;20231;42.710;23.280;2022-12-20T16:57:54;28.63;;;12.02;;
33952;SDS011;20231;42.710;23.280;2022-12-20T17:00:24;32.03;;;14.13;;
33952;SDS011;20231;42.710;23.280;2022-12-20T17:02:53;36.22;;;17.10;;
33952;SDS011;20231;42.710;23.280;2022-12-20T17:05:26;40.28;;;17.85;;
33952;SDS011;20231;42.710;23.280;2022-12-20T17:07:56;40.67;;;16.55;;
33952;SDS011;20231;42.710;23.280;2022-12-20T17:10:23;41.17;;;18.60;;
33952;SDS011;20231;42.710;23.280;2022-12-20T17:12:49;38.30;;;19.38;;